createdAt,value
2023-04-10T00:01:26.395Z,5.67
2023-04-10T00:03:53.956Z,5.72
2023-04-10T00:06:21.312Z,5.78
2023-04-10T00:08:48.229Z,5.57
2023-04-10T00:11:15.363Z,5.67
2023-04-10T00:13:42.315Z,5.62
2023-04-10T00:16:09.425Z,5.76
2023-04-10T00:18:36.502Z,5.75
2023-04-10T00:21:04.075Z,5.87
2023-04-10T00:23:35.017Z,5.44
2023-04-10T00:26:02.235Z,5.47
2023-04-10T00:28:29.319Z,5.43
2023-04-10T00:30:56.306Z,5.60
2023-04-10T00:33:23.354Z,5.52
2023-04-10T00:35:50.579Z,5.54
2023-04-10T00:38:17.651Z,5.57
2023-04-10T00:40:44.626Z,5.69
2023-04-10T00:43:12.259Z,5.68
2023-04-10T00:45:39.727Z,5.64
2023-04-10T00:48:06.871Z,5.58
2023-04-10T00:50:34.300Z,5.64
2023-04-10T00:53:01.295Z,5.51
2023-04-10T00:55:28.553Z,5.58
2023-04-10T00:57:56.791Z,5.54
2023-04-10T01:00:24.377Z,5.64
2023-04-10T01:02:57.765Z,5.63
2023-04-10T01:05:32.375Z,5.64
2023-04-10T01:08:17.494Z,5.37
2023-04-10T01:10:51.735Z,5.52
2023-04-10T01:13:50.265Z,5.50
2023-04-10T01:16:25.372Z,5.47
2023-04-10T01:19:24.582Z,5.44
2023-04-10T01:22:16.573Z,5.45
2023-04-10T01:25:15.251Z,5.10
2023-04-10T01:28:13.554Z,5.21
2023-04-10T01:30:41.515Z,4.95
2023-04-10T01:33:12.968Z,5.20
2023-04-10T01:35:43.295Z,5.30
2023-04-10T01:38:12.146Z,5.33
2023-04-10T01:40:42.501Z,4.80
2023-04-10T01:43:12.172Z,5.16
2023-04-10T01:45:42.159Z,5.19
2023-04-10T01:48:09.267Z,5.10
2023-04-10T01:50:36.820Z,5.33
2023-04-10T01:53:06.311Z,5.32
2023-04-10T01:55:34.522Z,5.39
2023-04-10T01:58:01.781Z,5.33
2023-04-10T02:00:29.014Z,5.32
2023-04-10T02:02:56.284Z,5.01
2023-04-10T02:05:28.762Z,4.93
2023-04-10T02:08:05.997Z,4.64
2023-04-10T02:10:52.350Z,4.04
2023-04-10T02:13:22.379Z,4.92
2023-04-10T02:15:52.371Z,5.03
2023-04-10T02:18:20.469Z,4.83
2023-04-10T02:20:47.876Z,5.03
2023-04-10T02:23:17.803Z,5.13
2023-04-10T02:25:45.237Z,5.14
2023-04-10T02:28:12.336Z,4.95
2023-04-10T02:30:39.685Z,4.94
2023-04-10T02:33:06.763Z,5.07
2023-04-10T02:35:37.905Z,5.02
2023-04-10T02:38:04.974Z,5.14
2023-04-10T02:40:32.105Z,5.17
2023-04-10T02:42:59.387Z,4.99
2023-04-10T02:45:26.428Z,4.92
2023-04-10T02:47:53.518Z,4.93
2023-04-10T02:50:20.716Z,4.86
2023-04-10T02:52:48.006Z,4.87
2023-04-10T02:55:15.107Z,5.02
2023-04-10T02:57:43.055Z,4.94
2023-04-10T03:00:19.699Z,4.49
2023-04-10T03:02:46.869Z,4.53
2023-04-10T03:05:13.937Z,4.16
2023-04-10T03:07:41.087Z,4.38
2023-04-10T03:10:08.881Z,4.76
2023-04-10T03:12:38.524Z,4.48
2023-04-10T03:15:06.566Z,4.81
2023-04-10T03:17:33.616Z,4.68
2023-04-10T03:20:00.678Z,4.85
2023-04-10T03:22:28.424Z,4.79
2023-04-10T03:24:55.836Z,4.86
2023-04-10T03:27:22.877Z,4.94
2023-04-10T03:29:49.826Z,4.93
2023-04-10T03:32:16.814Z,4.91
2023-04-10T03:34:44.145Z,5.01
2023-04-10T03:37:11.260Z,4.86
2023-04-10T03:39:38.286Z,4.85
2023-04-10T03:42:05.277Z,4.84
2023-04-10T03:44:32.395Z,4.80
2023-04-10T03:47:04.364Z,4.40
2023-04-10T03:49:31.475Z,4.42
2023-04-10T03:51:58.392Z,4.53
2023-04-10T03:54:25.597Z,4.54
2023-04-10T03:56:52.873Z,4.19
2023-04-10T03:59:20.627Z,4.67
2023-04-10T04:01:49.111Z,4.87
2023-04-10T04:04:17.184Z,4.90
2023-04-10T04:06:44.368Z,4.98
2023-04-10T04:09:13.961Z,4.84
2023-04-10T04:11:41.533Z,4.46
2023-04-10T04:14:17.745Z,4.42
2023-04-10T04:16:44.842Z,4.78
2023-04-10T04:19:12.009Z,5.00
2023-04-10T04:21:39.119Z,4.78
2023-04-10T04:24:06.495Z,4.62
2023-04-10T04:26:33.741Z,4.54
2023-04-10T04:29:00.752Z,4.35
2023-04-10T04:31:32.905Z,4.33
2023-04-10T04:34:00.771Z,4.67
2023-04-10T04:36:28.846Z,4.78
2023-04-10T04:38:55.886Z,5.13
2023-04-10T04:41:22.878Z,5.40
2023-04-10T04:43:49.976Z,5.88
2023-04-10T04:46:16.994Z,6.04
2023-04-10T04:48:44.002Z,6.32
2023-04-10T04:51:11.056Z,6.78
2023-04-10T04:53:38.021Z,7.23
2023-04-10T04:56:05.336Z,7.67
2023-04-10T04:58:32.294Z,8.10
2023-04-10T05:00:59.530Z,8.51
2023-04-10T05:03:28.928Z,9.02
2023-04-10T05:05:56.954Z,9.64
2023-04-10T05:08:24.063Z,9.96
2023-04-10T05:10:51.203Z,10.46
2023-04-10T05:13:18.195Z,10.82
2023-04-10T05:15:45.613Z,11.14
2023-04-10T05:18:13.995Z,11.65
2023-04-10T05:20:41.228Z,12.17
2023-04-10T05:23:08.238Z,12.54
2023-04-10T05:25:35.745Z,12.93
2023-04-10T05:28:02.667Z,13.37
2023-04-10T05:30:29.691Z,13.75
2023-04-10T05:32:57.043Z,14.18
2023-04-10T05:35:23.990Z,14.51
2023-04-10T05:37:50.933Z,14.64
2023-04-10T05:40:17.926Z,14.78
2023-04-10T05:42:44.925Z,15.04
2023-04-10T05:45:11.950Z,14.90
2023-04-10T05:47:39.227Z,15.26
2023-04-10T05:50:06.645Z,15.13
2023-04-10T05:52:33.585Z,15.02
2023-04-10T05:55:00.660Z,14.31
2023-04-10T05:57:27.753Z,14.61
2023-04-10T05:59:54.755Z,14.67
2023-04-10T06:02:22.119Z,14.50
2023-04-10T06:04:49.499Z,14.59
2023-04-10T06:07:16.881Z,14.89
2023-04-10T06:09:43.953Z,14.92
2023-04-10T06:12:11.014Z,14.82
2023-04-10T06:14:38.164Z,14.84
2023-04-10T06:17:05.167Z,15.08
2023-04-10T06:19:32.292Z,15.04
2023-04-10T06:21:59.509Z,15.19
2023-04-10T06:24:26.780Z,15.46
2023-04-10T06:26:54.020Z,15.74
2023-04-10T06:29:21.013Z,15.88
2023-04-10T06:31:48.069Z,15.84
2023-04-10T06:34:15.054Z,15.85
2023-04-10T06:36:42.046Z,15.72
2023-04-10T06:39:09.037Z,15.47
2023-04-10T06:41:36.130Z,15.41
2023-04-10T06:44:03.717Z,15.89
2023-04-10T06:46:30.916Z,14.68
2023-04-10T06:48:57.984Z,15.39
2023-04-10T06:51:25.114Z,14.37
2023-04-10T06:53:52.062Z,14.51
2023-04-10T06:56:19.054Z,14.12
2023-04-10T06:58:46.020Z,14.84
2023-04-10T07:01:13.028Z,14.53
2023-04-10T07:03:40.081Z,14.64
2023-04-10T07:06:08.608Z,14.80
2023-04-10T07:08:35.894Z,14.14
2023-04-10T07:11:02.915Z,14.39
2023-04-10T07:13:29.921Z,14.53
2023-04-10T07:15:57.062Z,14.51
2023-04-10T07:18:24.044Z,14.68
2023-04-10T07:20:52.164Z,14.67
2023-04-10T07:23:20.611Z,13.45
2023-04-10T07:25:47.624Z,13.69
2023-04-10T07:28:14.669Z,13.14
2023-04-10T07:30:41.701Z,13.00
2023-04-10T07:33:08.957Z,12.97
2023-04-10T07:35:36.896Z,13.30
2023-04-10T07:38:04.834Z,14.23
2023-04-10T07:40:31.856Z,14.01
2023-04-10T07:42:58.834Z,14.64
2023-04-10T07:45:26.548Z,14.19
2023-04-10T07:47:53.606Z,14.43
2023-04-10T07:50:20.652Z,15.02
2023-04-10T07:52:48.837Z,14.18
2023-04-10T07:55:16.069Z,15.15
2023-04-10T07:57:43.013Z,14.43
2023-04-10T08:00:10.517Z,14.04
2023-04-10T08:02:37.758Z,14.28
2023-04-10T08:05:05.244Z,13.71
2023-04-10T08:07:32.389Z,13.82
2023-04-10T08:09:59.374Z,12.59
2023-04-10T08:12:26.552Z,12.70
2023-04-10T08:14:53.568Z,13.28
2023-04-10T08:17:20.558Z,13.83
2023-04-10T08:19:47.584Z,11.80
2023-04-10T08:22:14.564Z,12.61
2023-04-10T08:24:41.456Z,12.83
2023-04-10T08:27:08.506Z,12.69
2023-04-10T08:29:35.406Z,12.98
2023-04-10T08:32:02.699Z,12.46
2023-04-10T08:34:29.734Z,13.17
2023-04-10T08:36:57.886Z,13.39
2023-04-10T08:39:25.149Z,13.12
2023-04-10T08:41:52.255Z,13.03
2023-04-10T08:44:19.244Z,14.67
2023-04-10T08:46:46.347Z,14.43
2023-04-10T08:49:24.984Z,15.32
2023-04-10T08:52:04.666Z,15.81
2023-04-10T08:54:33.966Z,15.30
2023-04-10T08:57:05.088Z,15.70
2023-04-10T08:59:32.486Z,16.39
2023-04-10T09:02:00.032Z,17.12
2023-04-10T09:04:27.762Z,16.20
2023-04-10T09:06:54.887Z,16.31
2023-04-10T09:09:21.903Z,17.11
2023-04-10T09:12:01.058Z,16.27
2023-04-10T09:14:34.267Z,14.81
2023-04-10T09:17:20.609Z,16.34
2023-04-10T09:19:49.848Z,17.21
2023-04-10T09:22:17.207Z,18.27
2023-04-10T09:24:47.466Z,18.85
2023-04-10T09:27:42.434Z,19.43
2023-04-10T09:30:09.696Z,20.01
2023-04-10T09:32:42.488Z,20.63
2023-04-10T09:35:15.054Z,19.74
2023-04-10T09:37:45.223Z,20.00
2023-04-10T09:40:24.199Z,18.00
2023-04-10T09:42:51.787Z,16.95
2023-04-10T09:45:22.796Z,17.74
2023-04-10T09:48:07.847Z,17.89
2023-04-10T09:50:40.440Z,17.56
2023-04-10T09:53:09.229Z,17.45
2023-04-10T09:55:37.295Z,17.52
2023-04-10T09:58:05.849Z,18.33
2023-04-10T10:00:46.341Z,19.21
2023-04-10T10:03:18.668Z,19.62
2023-04-10T10:05:49.011Z,19.14
2023-04-10T10:08:16.901Z,18.30
2023-04-10T10:10:57.649Z,17.83
2023-04-10T10:13:44.807Z,18.70
2023-04-10T10:16:29.640Z,18.94
2023-04-10T10:19:14.738Z,19.32
2023-04-10T10:21:44.882Z,19.47
2023-04-10T10:24:13.400Z,19.09
2023-04-10T10:26:40.949Z,19.44
2023-04-10T10:29:13.724Z,20.39
2023-04-10T10:31:41.002Z,20.52
2023-04-10T10:34:09.537Z,18.27
2023-04-10T10:36:37.890Z,18.90
2023-04-10T10:39:11.259Z,18.36
2023-04-10T10:41:45.317Z,19.64
2023-04-10T10:44:17.797Z,20.02
2023-04-10T10:47:06.029Z,20.50
2023-04-10T10:49:59.823Z,18.91
2023-04-10T10:52:43.333Z,18.13
2023-04-10T10:55:22.852Z,18.37
2023-04-10T10:57:50.641Z,17.37
2023-04-10T11:00:17.880Z,18.31
2023-04-10T11:02:45.493Z,17.56
2023-04-10T11:05:57.528Z,17.60
2023-04-10T11:08:48.875Z,17.75
2023-04-10T11:11:22.051Z,16.80
2023-04-10T11:13:52.393Z,18.02
2023-04-10T11:16:25.026Z,18.20
2023-04-10T11:19:02.832Z,19.17
2023-04-10T11:21:57.904Z,19.22
2023-04-10T11:24:24.989Z,20.71
2023-04-10T11:26:52.261Z,19.92
2023-04-10T11:29:28.569Z,18.64
2023-04-10T11:31:56.840Z,16.94
2023-04-10T11:34:24.406Z,16.85
2023-04-10T11:36:51.527Z,16.90
2023-04-10T11:39:20.662Z,17.20
2023-04-10T11:41:55.198Z,18.19
2023-04-10T11:44:32.818Z,18.33
2023-04-10T11:47:00.052Z,17.30
2023-04-10T11:49:34.932Z,17.77
2023-04-10T11:52:02.163Z,17.15
2023-04-10T11:54:30.265Z,17.27
2023-04-10T11:57:07.919Z,16.91
2023-04-10T11:59:35.741Z,18.58
2023-04-10T12:02:16.202Z,18.12
2023-04-10T12:04:44.693Z,18.65
2023-04-10T12:07:12.084Z,19.52
2023-04-10T12:09:39.330Z,18.66
2023-04-10T12:12:07.934Z,18.64
2023-04-10T12:14:39.938Z,18.50
2023-04-10T12:17:10.286Z,18.86
2023-04-10T12:19:38.774Z,19.24
2023-04-10T12:22:05.976Z,19.84
2023-04-10T12:24:47.679Z,18.80
2023-04-10T12:27:22.185Z,18.72
2023-04-10T12:29:51.457Z,18.12
2023-04-10T12:32:19.125Z,17.93
2023-04-10T12:35:01.663Z,18.37
2023-04-10T12:37:52.445Z,18.24
2023-04-10T12:40:20.957Z,19.79
2023-04-10T12:42:48.028Z,20.04
2023-04-10T12:45:15.578Z,19.41
2023-04-10T12:47:54.128Z,20.34
2023-04-10T12:50:21.471Z,20.28
2023-04-10T12:53:07.781Z,18.42
2023-04-10T12:55:34.870Z,17.72
2023-04-10T12:58:20.423Z,18.98
2023-04-10T13:00:48.254Z,19.39
2023-04-10T13:03:15.992Z,19.74
2023-04-10T13:05:43.189Z,20.67
2023-04-10T13:08:10.267Z,19.72
2023-04-10T13:10:38.524Z,19.09
2023-04-10T13:13:07.332Z,18.83
2023-04-10T13:15:35.094Z,17.28
2023-04-10T13:18:03.702Z,17.70
2023-04-10T13:20:34.118Z,17.95
2023-04-10T13:23:02.761Z,19.05
2023-04-10T13:25:34.763Z,18.92
2023-04-10T13:28:02.021Z,18.75
2023-04-10T13:30:29.673Z,17.26
2023-04-10T13:32:56.798Z,17.07
2023-04-10T13:35:23.978Z,17.54
2023-04-10T13:37:53.466Z,17.14
2023-04-10T13:40:21.646Z,17.74
2023-04-10T13:42:49.036Z,18.00
2023-04-10T13:45:16.206Z,18.04
2023-04-10T13:47:44.131Z,17.96
2023-04-10T13:50:11.620Z,18.28
2023-04-10T13:52:38.796Z,19.09
2023-04-10T13:55:06.806Z,18.70
2023-04-10T13:57:34.535Z,19.34
2023-04-10T14:00:01.836Z,20.09
2023-04-10T14:02:29.240Z,20.43
2023-04-10T14:04:56.329Z,21.01
2023-04-10T14:07:23.414Z,20.41
2023-04-10T14:09:50.599Z,20.89
2023-04-10T14:12:19.384Z,20.03
2023-04-10T14:14:46.512Z,19.12
2023-04-10T14:17:13.678Z,18.26
2023-04-10T14:19:42.014Z,18.15
2023-04-10T14:22:09.113Z,17.29
2023-04-10T14:24:36.185Z,17.90
2023-04-10T14:27:03.275Z,17.61
2023-04-10T14:29:36.309Z,17.47
2023-04-10T14:32:06.437Z,17.36
2023-04-10T14:34:33.538Z,17.82
2023-04-10T14:37:00.897Z,18.33
2023-04-10T14:39:28.159Z,18.31
2023-04-10T14:41:55.251Z,18.68
2023-04-10T14:44:22.431Z,18.90
2023-04-10T14:46:49.523Z,18.83
2023-04-10T14:49:16.722Z,19.31
2023-04-10T14:51:45.051Z,19.43
2023-04-10T14:54:12.451Z,19.67
2023-04-10T14:56:39.530Z,20.04
2023-04-10T14:59:07.323Z,19.60
2023-04-10T15:01:36.132Z,19.32
2023-04-10T15:04:03.234Z,19.18
2023-04-10T15:06:32.635Z,19.21
2023-04-10T15:08:59.915Z,18.92
2023-04-10T15:11:26.986Z,17.80
2023-04-10T15:13:54.495Z,17.15
2023-04-10T15:16:21.761Z,17.93
2023-04-10T15:18:49.682Z,17.62
2023-04-10T15:21:17.175Z,17.64
2023-04-10T15:23:44.204Z,17.55
2023-04-10T15:26:14.901Z,18.01
2023-04-10T15:28:46.109Z,18.22
2023-04-10T15:31:13.208Z,18.55
2023-04-10T15:33:40.388Z,18.83
2023-04-10T15:36:08.128Z,18.11
2023-04-10T15:38:36.037Z,18.89
2023-04-10T15:41:13.376Z,18.74
2023-04-10T15:43:40.566Z,18.91
2023-04-10T15:46:07.661Z,18.44
2023-04-10T15:48:34.801Z,18.22
2023-04-10T15:51:06.654Z,18.67
2023-04-10T15:53:35.286Z,18.74
2023-04-10T15:56:05.310Z,18.43
2023-04-10T15:58:32.776Z,17.88
2023-04-10T16:01:00.029Z,18.11
2023-04-10T16:03:29.498Z,17.31
2023-04-10T16:05:58.685Z,17.62
2023-04-10T16:08:26.585Z,17.75
2023-04-10T16:10:54.087Z,17.98
2023-04-10T16:13:21.219Z,18.01
2023-04-10T16:15:49.495Z,18.09
2023-04-10T16:18:16.627Z,17.73
2023-04-10T16:20:43.792Z,18.28
2023-04-10T16:23:10.973Z,18.33
2023-04-10T16:25:38.079Z,17.64
2023-04-10T16:28:08.208Z,17.60
2023-04-10T16:30:36.348Z,17.33
2023-04-10T16:33:04.434Z,17.04
2023-04-10T16:35:32.136Z,17.18
2023-04-10T16:37:59.239Z,17.05
2023-04-10T16:40:32.833Z,17.14
2023-04-10T16:43:01.269Z,16.90
2023-04-10T16:45:28.422Z,17.00
2023-04-10T16:47:55.605Z,17.28
2023-04-10T16:50:22.812Z,17.48
2023-04-10T16:52:51.925Z,17.39
2023-04-10T16:55:19.104Z,17.52
2023-04-10T16:57:46.903Z,17.45
2023-04-10T17:00:14.472Z,17.57
2023-04-10T17:02:43.173Z,17.40
2023-04-10T17:05:11.368Z,17.53
2023-04-10T17:07:38.536Z,17.35
2023-04-10T17:10:06.077Z,17.19
2023-04-10T17:12:33.144Z,17.17
2023-04-10T17:15:00.275Z,17.16
2023-04-10T17:17:27.383Z,17.11
2023-04-10T17:19:54.956Z,16.83
2023-04-10T17:22:23.593Z,16.92
2023-04-10T17:24:50.967Z,16.86
2023-04-10T17:27:17.975Z,16.99
2023-04-10T17:29:45.083Z,17.09
2023-04-10T17:32:12.173Z,16.86
2023-04-10T17:34:39.268Z,16.76
2023-04-10T17:37:06.282Z,16.73
2023-04-10T17:39:33.362Z,16.76
2023-04-10T17:42:00.494Z,16.80
2023-04-10T17:44:27.680Z,16.58
2023-04-10T17:46:54.787Z,16.51
2023-04-10T17:49:22.441Z,16.65
2023-04-10T17:51:50.044Z,16.03
2023-04-10T17:54:17.263Z,16.17
2023-04-10T17:56:44.405Z,16.33
2023-04-10T17:59:11.770Z,16.46
2023-04-10T18:01:39.212Z,16.11
2023-04-10T18:04:06.557Z,16.28
2023-04-10T18:06:33.865Z,15.81
2023-04-10T18:09:00.952Z,16.09
2023-04-10T18:11:28.847Z,15.95
2023-04-10T18:13:55.898Z,15.98
2023-04-10T18:16:23.047Z,15.93
2023-04-10T18:18:50.212Z,15.99
2023-04-10T18:21:17.226Z,15.95
2023-04-10T18:23:44.912Z,15.98
2023-04-10T18:26:12.193Z,15.94
2023-04-10T18:28:39.823Z,15.76
2023-04-10T18:31:08.652Z,15.77
2023-04-10T18:33:35.859Z,15.61
2023-04-10T18:36:03.749Z,15.64
2023-04-10T18:38:31.132Z,15.44
2023-04-10T18:40:59.730Z,15.32
2023-04-10T18:43:29.633Z,15.32
2023-04-10T18:45:57.255Z,15.34
2023-04-10T18:48:24.466Z,15.39
2023-04-10T18:50:56.312Z,15.21
2023-04-10T18:53:23.463Z,15.41
2023-04-10T18:55:55.015Z,15.43
2023-04-10T18:58:22.498Z,15.49
2023-04-10T19:00:50.152Z,15.34
2023-04-10T19:03:17.411Z,15.13
2023-04-10T19:05:44.877Z,14.89
2023-04-10T19:08:14.768Z,14.65
2023-04-10T19:10:42.437Z,14.63
2023-04-10T19:13:12.161Z,14.66
2023-04-10T19:15:43.019Z,14.46
2023-04-10T19:18:10.359Z,14.60
2023-04-10T19:20:50.375Z,14.58
2023-04-10T19:23:19.858Z,14.58
2023-04-10T19:25:47.320Z,14.41
2023-04-10T19:28:14.389Z,14.39
2023-04-10T19:30:41.462Z,14.22
2023-04-10T19:33:08.445Z,14.10
2023-04-10T19:35:35.511Z,14.07
2023-04-10T19:38:02.642Z,13.96
2023-04-10T19:40:31.275Z,13.81
2023-04-10T19:43:02.762Z,13.85
2023-04-10T19:45:29.858Z,13.68
2023-04-10T19:47:57.274Z,13.73
2023-04-10T19:50:24.772Z,13.66
2023-04-10T19:52:52.112Z,13.59
2023-04-10T19:55:19.427Z,13.29
2023-04-10T19:57:46.515Z,13.35
2023-04-10T20:00:14.093Z,13.31
2023-04-10T20:02:41.626Z,13.27
2023-04-10T20:05:09.414Z,13.24
2023-04-10T20:07:36.461Z,13.09
2023-04-10T20:10:04.706Z,13.00
2023-04-10T20:12:35.248Z,12.78
2023-04-10T20:15:03.906Z,12.80
2023-04-10T20:17:31.273Z,12.83
2023-04-10T20:19:58.778Z,12.73
2023-04-10T20:22:25.766Z,12.77
2023-04-10T20:24:52.827Z,12.46
2023-04-10T20:27:19.893Z,12.35
2023-04-10T20:29:46.979Z,12.24
2023-04-10T20:32:14.051Z,12.27
2023-04-10T20:34:41.020Z,12.01
2023-04-10T20:37:08.172Z,12.17
2023-04-10T20:39:36.238Z,12.15
2023-04-10T20:42:03.378Z,12.17
2023-04-10T20:44:30.381Z,12.11
2023-04-10T20:46:58.218Z,12.04
2023-04-10T20:49:45.212Z,12.01
2023-04-10T20:52:13.441Z,11.86
2023-04-10T20:54:41.439Z,11.87
2023-04-10T20:57:08.825Z,11.94
2023-04-10T20:59:36.818Z,11.82
2023-04-10T21:02:04.216Z,11.72
2023-04-10T21:04:52.721Z,11.66
2023-04-10T21:07:20.527Z,11.48
2023-04-10T21:09:49.642Z,11.54
2023-04-10T21:12:17.481Z,11.58
2023-04-10T21:14:44.917Z,11.40
2023-04-10T21:17:13.214Z,11.43
2023-04-10T21:19:40.113Z,10.97
2023-04-10T21:22:10.764Z,11.28
2023-04-10T21:24:38.016Z,11.34
2023-04-10T21:27:05.514Z,11.10
2023-04-10T21:29:33.065Z,11.19
2023-04-10T21:32:02.272Z,10.73
2023-04-10T21:34:35.720Z,10.53
2023-04-10T21:37:02.767Z,10.11
2023-04-10T21:39:30.417Z,9.96
2023-04-10T21:41:57.980Z,10.27
2023-04-10T21:44:25.968Z,10.31
2023-04-10T21:46:53.273Z,10.31
2023-04-10T21:49:20.548Z,10.39
2023-04-10T21:51:47.663Z,10.35
2023-04-10T21:54:14.854Z,10.29
2023-04-10T21:56:42.244Z,10.36
2023-04-10T21:59:09.283Z,10.51
2023-04-10T22:01:36.501Z,10.64
2023-04-10T22:04:03.819Z,10.48
2023-04-10T22:06:31.737Z,10.22
2023-04-10T22:08:58.795Z,10.15
2023-04-10T22:11:26.014Z,10.18
2023-04-10T22:13:53.656Z,10.17
2023-04-10T22:16:21.904Z,10.10
2023-04-10T22:18:49.018Z,10.02
2023-04-10T22:21:16.106Z,9.85
2023-04-10T22:23:43.044Z,9.94
2023-04-10T22:26:10.079Z,9.73
2023-04-10T22:28:37.177Z,9.81
2023-04-10T22:31:04.210Z,9.39
2023-04-10T22:33:34.412Z,9.65
2023-04-10T22:36:01.493Z,9.69
2023-04-10T22:38:28.601Z,9.51
2023-04-10T22:40:56.155Z,9.57
2023-04-10T22:43:23.200Z,9.60
2023-04-10T22:45:50.264Z,9.35
2023-04-10T22:48:17.301Z,8.96
2023-04-10T22:50:44.572Z,9.33
2023-04-10T22:53:12.434Z,9.33
2023-04-10T22:55:39.879Z,9.31
2023-04-10T22:58:07.926Z,9.26
2023-04-10T23:00:35.079Z,9.16
2023-04-10T23:03:02.322Z,9.20
2023-04-10T23:05:29.643Z,9.21
2023-04-10T23:07:56.604Z,9.08
2023-04-10T23:10:23.517Z,9.04
2023-04-10T23:12:50.702Z,9.23
2023-04-10T23:15:18.071Z,8.96
2023-04-10T23:17:45.796Z,9.23
2023-04-10T23:20:32.706Z,8.93
2023-04-10T23:23:00.145Z,8.98
2023-04-10T23:25:29.029Z,8.87
2023-04-10T23:27:56.486Z,8.73
2023-04-10T23:30:23.656Z,8.67
2023-04-10T23:32:53.016Z,7.70
2023-04-10T23:35:21.185Z,8.46
2023-04-10T23:37:53.447Z,8.50
2023-04-10T23:40:21.868Z,8.51
2023-04-10T23:42:48.787Z,8.64
2023-04-10T23:45:15.959Z,8.72
2023-04-10T23:47:42.954Z,8.62
2023-04-10T23:50:10.711Z,7.97
2023-04-10T23:52:59.619Z,7.62
2023-04-10T23:55:26.837Z,7.56
2023-04-10T23:57:53.798Z,7.60
